Archival Weather

Chicago O'Hare International

Chicago, Illinois (KORD)

Report from: Wednesday, February 16, 2022 4:51 PM CST
Current time: Saturday, February 4, 2023 10:10 PM CST

Current weather
Weather history
Weather forecast

Present weatherLight rain
Temperature11.1°C (52.0°F)
Dew point7.8°C (46.0°F)
Winds 15 kts (7.7 m/s, 17.3 mph) South-Southwest (210°)
Wind gusts 23 kts (11.8 m/s, 26.5 mph)
Peak wind 28 kts (14.4 m/s, 32.2 mph) Southwest (220°) at 16:30
Visibility10 mi. (16.1 km)
Clouds Few clouds 1,800 ft. (549 m)
Ceiling: Broken clouds 3,900 ft. (1,189 m)
Overcast 6,000 ft. (1,829 m)
Altimeter29.78 in.Hg (1008 mB)
PrecipitiationTrace
Relative humidity80 %
Density altitude-151 ft. (-46 m)
Sea-level pressure100.9 kPa (1009 mB, 29.78 in.Hg)
Remarks Automated weather observing station with precipitation discriminator
Flight conditions Visual Meteorological Conditions
Raw dataKORD 162251Z 21015G23KT 10SM -RA FEW018 BKN039 OVC060 11/08 A2978 RMK AO2 PK WND 22028/2230 SLP085 P0000 T01110078
An unhandled exception has occurred. See browser dev tools for details. Reload 🗙